createdAt,value
2022-11-15T00:00:00.296Z,99931.16
2022-11-15T00:02:28.281Z,99858.28
2022-11-15T00:04:56.084Z,99926.84
2022-11-15T00:07:53.463Z,99923.31
2022-11-15T00:10:12.310Z,99926.91
2022-11-15T00:12:39.798Z,99935.63
2022-11-15T00:15:08.643Z,99919.13
2022-11-15T00:17:36.155Z,99920.25
2022-11-15T00:20:04.038Z,99931.31
2022-11-15T00:22:34.808Z,99867.97
2022-11-15T00:25:02.248Z,99920.84
2022-11-15T00:27:29.692Z,99921.69
2022-11-15T00:29:57.146Z,99919.84
2022-11-15T00:32:24.599Z,99917.28
2022-11-15T00:34:52.080Z,99923.47
2022-11-15T00:37:19.577Z,99923.41
2022-11-15T00:39:48.353Z,99919.84
2022-11-15T00:42:15.798Z,99914.47
2022-11-15T00:44:43.233Z,99915.41
2022-11-15T00:47:10.688Z,99913.78
2022-11-15T00:49:38.169Z,99910.19
2022-11-15T00:52:05.618Z,99911.06
2022-11-15T00:54:33.050Z,99852.13
2022-11-15T00:57:01.816Z,99889.69
2022-11-15T00:59:29.274Z,99904.91
2022-11-15T01:01:56.732Z,99906.78
2022-11-15T01:04:24.180Z,99904.97
2022-11-15T01:06:51.639Z,99894.41
2022-11-15T01:09:19.123Z,99890.94
2022-11-15T01:11:46.597Z,99884.09
2022-11-15T01:14:15.426Z,99828.66
2022-11-15T01:16:42.873Z,99879.50
2022-11-15T01:19:10.303Z,99875.16
2022-11-15T01:21:37.798Z,99875.25
2022-11-15T01:24:05.812Z,99880.53
2022-11-15T01:26:33.267Z,99787.53
2022-11-15T01:29:00.682Z,99872.50
2022-11-15T01:31:29.460Z,99864.66
2022-11-15T01:33:56.886Z,99861.94
2022-11-15T01:36:24.587Z,99858.44
2022-11-15T01:38:54.964Z,99849.66
2022-11-15T01:41:23.143Z,99854.94
2022-11-15T01:43:51.032Z,99855.88
2022-11-15T01:46:25.378Z,99817.47
2022-11-15T01:51:29.810Z,99860.22
2022-11-15T01:53:58.451Z,99857.56
2022-11-15T01:56:27.323Z,99861.09
2022-11-15T01:58:54.775Z,99852.28
2022-11-15T02:01:22.256Z,99840.03
2022-11-15T02:03:52.561Z,99842.66
2022-11-15T02:06:20.235Z,99840.88
2022-11-15T02:08:48.989Z,99836.50
2022-11-15T02:11:16.406Z,99830.31
2022-11-15T02:13:43.884Z,99833.78
2022-11-15T02:16:15.442Z,99777.47
2022-11-15T02:18:44.880Z,99843.53
2022-11-15T02:21:16.573Z,99832.97
2022-11-15T02:24:08.529Z,99840.88
2022-11-15T02:27:09.638Z,99834.72
2022-11-15T02:29:46.858Z,99741.72
2022-11-15T02:32:17.676Z,99829.53
2022-11-15T02:34:48.191Z,99837.47
2022-11-15T02:37:17.704Z,99842.75
2022-11-15T02:39:48.750Z,99830.41
2022-11-15T02:42:31.372Z,99840.09
2022-11-15T02:44:58.935Z,99833.78
2022-11-15T02:47:27.743Z,99831.22
2022-11-15T02:49:55.842Z,99820.06
2022-11-15T02:52:24.600Z,99833.88
2022-11-15T02:54:55.295Z,99824.16
2022-11-15T02:57:31.632Z,99826.72
2022-11-15T03:00:05.011Z,99735.59
2022-11-15T03:02:58.880Z,99817.84
2022-11-15T03:05:28.571Z,99817.94
2022-11-15T03:08:02.038Z,99748.97
2022-11-15T03:10:34.343Z,99765.13
2022-11-15T03:13:05.796Z,99813.50
2022-11-15T03:15:34.421Z,99811.72
2022-11-15T03:18:04.538Z,99820.50
2022-11-15T03:20:31.793Z,99805.75
2022-11-15T03:23:02.202Z,99793.19
2022-11-15T03:25:29.956Z,99815.44
2022-11-15T03:27:58.144Z,99807.44
2022-11-15T03:30:25.575Z,99807.34
2022-11-15T03:32:55.511Z,99690.09
2022-11-15T03:35:25.152Z,99800.22
2022-11-15T03:37:56.583Z,99767.09
2022-11-15T03:40:26.566Z,99806.44
2022-11-15T03:42:57.102Z,99804.63
2022-11-15T03:45:25.292Z,99810.00
2022-11-15T03:47:54.980Z,99814.47
2022-11-15T03:50:23.868Z,99811.03
2022-11-15T03:52:51.429Z,99704.31
2022-11-15T03:55:20.422Z,99732.56
2022-11-15T03:57:48.040Z,99809.16
2022-11-15T04:00:16.001Z,99811.81
2022-11-15T04:02:43.468Z,99809.16
2022-11-15T04:05:10.902Z,99808.38
2022-11-15T04:07:39.694Z,99804.81
2022-11-15T04:10:08.442Z,99810.09
2022-11-15T04:12:36.617Z,99737.59
2022-11-15T04:15:11.345Z,99805.75
2022-11-15T04:17:40.217Z,99758.38
2022-11-15T04:20:26.946Z,99807.53
2022-11-15T04:23:13.973Z,99732.63
2022-11-15T04:25:41.545Z,99805.75
2022-11-15T04:28:09.005Z,99810.94
2022-11-15T04:30:36.441Z,99803.03
2022-11-15T04:33:03.921Z,99815.44
2022-11-15T04:35:31.368Z,99812.72
2022-11-15T04:38:00.146Z,99808.38
2022-11-15T04:40:27.597Z,99814.53
2022-11-15T04:42:59.465Z,99710.28
2022-11-15T04:45:30.763Z,99818.09
2022-11-15T04:47:58.219Z,99807.53
2022-11-15T04:50:25.652Z,99810.16
2022-11-15T04:52:54.180Z,99735.34
2022-11-15T04:55:22.972Z,99813.75
2022-11-15T04:58:00.628Z,99817.34
2022-11-15T05:00:28.439Z,99807.59
2022-11-15T05:03:13.394Z,99797.28
2022-11-15T05:05:40.841Z,99806.69
2022-11-15T05:08:08.289Z,99809.34
2022-11-15T05:10:37.107Z,99807.53
2022-11-15T05:13:04.556Z,99800.53
2022-11-15T05:15:31.980Z,99798.75
2022-11-15T05:18:00.259Z,99805.91
2022-11-15T05:20:27.702Z,99797.97
2022-11-15T05:22:55.451Z,99804.13
2022-11-15T05:25:22.890Z,99800.63
2022-11-15T05:27:51.679Z,99803.19
2022-11-15T05:30:19.169Z,99801.41
2022-11-15T05:32:46.729Z,99803.09
2022-11-15T05:35:15.309Z,99802.16
2022-11-15T05:37:42.776Z,99798.59
2022-11-15T05:40:10.735Z,99786.22
2022-11-15T05:42:38.192Z,99797.56
2022-11-15T05:45:08.384Z,99801.91
2022-11-15T05:47:36.309Z,99799.19
2022-11-15T05:50:03.815Z,99794.75
2022-11-15T05:52:32.329Z,99774.28
2022-11-15T05:54:59.804Z,99784.09
2022-11-15T05:57:27.263Z,99788.38
2022-11-15T05:59:55.141Z,99778.03
2022-11-15T06:02:23.997Z,99784.81
2022-11-15T06:04:51.476Z,99780.34
2022-11-15T06:07:18.956Z,99786.50
2022-11-15T06:09:46.434Z,99790.75
2022-11-15T06:12:13.880Z,99788.09
2022-11-15T06:14:41.310Z,99785.38
2022-11-15T06:17:11.514Z,99793.22
2022-11-15T06:19:40.403Z,99797.56
2022-11-15T06:22:07.925Z,99794.91
2022-11-15T06:24:35.388Z,99793.06
2022-11-15T06:27:02.864Z,99779.84
2022-11-15T06:29:30.304Z,99769.03
2022-11-15T06:31:57.756Z,99777.13
2022-11-15T06:34:25.383Z,99773.59
2022-11-15T06:36:54.251Z,99780.72
2022-11-15T06:39:21.687Z,99776.06
2022-11-15T06:41:49.128Z,99776.06
2022-11-15T06:44:17.311Z,99780.44
2022-11-15T06:46:44.769Z,99787.44
2022-11-15T06:49:12.178Z,99783.00
2022-11-15T06:51:39.611Z,99784.53
2022-11-15T06:54:08.446Z,99793.19
2022-11-15T06:56:35.918Z,99790.38
2022-11-15T06:59:03.396Z,99790.38
2022-11-15T07:01:30.864Z,99803.59
2022-11-15T07:03:58.369Z,99789.59
2022-11-15T07:06:25.811Z,99803.44
2022-11-15T07:08:53.246Z,99798.16
2022-11-15T07:11:22.008Z,99803.34
2022-11-15T07:13:49.465Z,99809.38
2022-11-15T07:16:16.917Z,99805.72
2022-11-15T07:18:44.357Z,99800.28
2022-11-15T07:21:12.140Z,99805.38
2022-11-15T07:23:39.668Z,99811.25
2022-11-15T07:26:07.382Z,99811.00
2022-11-15T07:28:36.704Z,99811.84
2022-11-15T07:31:04.656Z,99814.31
2022-11-15T07:33:32.465Z,99825.78
2022-11-15T07:36:02.391Z,99769.31
2022-11-15T07:38:29.978Z,99813.22
2022-11-15T07:40:58.332Z,99726.09
2022-11-15T07:43:25.805Z,99809.66
2022-11-15T07:45:58.817Z,99811.00
2022-11-15T07:48:35.706Z,99808.50
2022-11-15T07:51:14.174Z,99808.53
2022-11-15T07:53:41.989Z,99808.81
2022-11-15T07:56:09.541Z,99814.03
2022-11-15T07:58:37.011Z,99811.56
2022-11-15T08:01:06.502Z,99809.31
2022-11-15T08:03:34.505Z,99811.66
2022-11-15T08:06:02.295Z,99812.41
2022-11-15T08:08:29.743Z,99814.81
2022-11-15T08:10:58.936Z,99817.81
2022-11-15T08:13:26.391Z,99821.81
2022-11-15T08:15:57.770Z,99820.34
2022-11-15T08:18:26.707Z,99819.84
2022-11-15T08:20:54.166Z,99818.59
2022-11-15T08:23:21.633Z,99812.22
2022-11-15T08:25:49.381Z,99816.38
2022-11-15T08:28:18.106Z,99811.81
2022-11-15T08:30:46.495Z,99806.50
2022-11-15T08:33:15.065Z,99810.66
2022-11-15T08:35:44.026Z,99813.22
2022-11-15T08:38:11.465Z,99799.84
2022-11-15T08:40:38.989Z,99790.63
2022-11-15T08:43:06.564Z,99784.41
2022-11-15T08:45:35.200Z,99784.09
2022-11-15T08:48:02.802Z,99716.41
2022-11-15T08:50:30.323Z,99782.97
2022-11-15T08:52:59.165Z,99775.53
2022-11-15T08:55:29.201Z,99792.00
2022-11-15T08:57:58.852Z,99810.28
2022-11-15T09:00:26.306Z,99785.53
2022-11-15T09:02:53.772Z,99786.50
2022-11-15T09:05:21.259Z,99796.91
2022-11-15T09:07:48.737Z,99792.47
2022-11-15T09:10:17.888Z,99801.06
2022-11-15T09:12:45.339Z,99799.16
2022-11-15T09:15:12.787Z,99801.81
2022-11-15T09:17:40.220Z,99804.38
2022-11-15T09:20:08.803Z,99805.03
2022-11-15T09:22:37.351Z,99757.03
2022-11-15T09:25:08.517Z,99801.97
2022-11-15T09:27:38.749Z,99801.66
2022-11-15T09:30:07.217Z,99798.81
2022-11-15T09:32:39.026Z,99804.00
2022-11-15T09:35:07.420Z,99802.19
2022-11-15T09:37:34.879Z,99810.03
2022-11-15T09:40:02.543Z,99809.53
2022-11-15T09:42:42.368Z,99778.56
2022-11-15T09:45:16.014Z,99810.91
2022-11-15T09:48:18.287Z,99801.34
2022-11-15T09:50:47.791Z,99807.69
2022-11-15T09:54:01.063Z,99798.69
2022-11-15T09:56:16.647Z,99800.38
2022-11-15T09:58:48.562Z,99789.66
2022-11-15T10:01:19.055Z,99792.53
2022-11-15T10:03:46.547Z,99796.25
2022-11-15T10:06:19.570Z,99775.81
2022-11-15T10:08:52.537Z,99796.56
2022-11-15T10:11:38.695Z,99800.25
2022-11-15T10:14:12.434Z,99746.97
2022-11-15T10:17:05.803Z,99790.75
2022-11-15T10:19:36.391Z,99787.00
2022-11-15T10:22:13.469Z,99779.34
2022-11-15T10:24:43.377Z,99783.69
2022-11-15T10:27:12.545Z,99768.41
2022-11-15T10:29:44.812Z,99722.22
2022-11-15T10:32:12.699Z,99763.34
2022-11-15T10:34:40.141Z,99754.31
2022-11-15T10:37:07.626Z,99754.69
2022-11-15T10:39:35.390Z,99754.38
2022-11-15T10:42:18.029Z,99735.44
2022-11-15T10:44:46.974Z,99754.91
2022-11-15T10:47:39.500Z,99745.22
2022-11-15T10:50:09.235Z,99751.50
2022-11-15T10:52:37.308Z,99741.81
2022-11-15T10:55:08.488Z,99733.03
2022-11-15T10:57:38.412Z,99728.22
2022-11-15T11:00:08.866Z,99730.69
2022-11-15T11:02:37.962Z,99678.22
2022-11-15T11:05:06.643Z,99730.22
2022-11-15T11:07:35.027Z,99726.09
2022-11-15T11:10:09.765Z,99717.16
2022-11-15T11:12:45.111Z,99716.31
2022-11-15T11:15:16.261Z,99717.25
2022-11-15T11:17:55.993Z,99713.75
2022-11-15T11:20:28.254Z,99689.19
2022-11-15T11:23:03.267Z,99702.50
2022-11-15T11:25:34.899Z,99712.25
2022-11-15T11:28:12.149Z,99687.78
2022-11-15T11:30:53.890Z,99700.78
2022-11-15T11:33:22.607Z,99661.84
2022-11-15T11:35:55.164Z,99638.78
2022-11-15T11:38:49.138Z,99702.72
2022-11-15T11:41:21.561Z,99694.75
2022-11-15T11:43:57.385Z,99693.03
2022-11-15T11:46:43.658Z,99681.69
2022-11-15T11:49:11.716Z,99622.72
2022-11-15T11:51:41.760Z,99667.41
2022-11-15T11:54:13.905Z,99680.16
2022-11-15T11:56:43.494Z,99678.47
2022-11-15T11:59:14.109Z,99676.03
2022-11-15T12:01:43.814Z,99670.00
2022-11-15T12:04:13.511Z,99610.53
2022-11-15T12:06:44.163Z,99668.16
2022-11-15T12:09:15.567Z,99662.94
2022-11-15T12:11:48.889Z,99609.06
2022-11-15T12:14:22.951Z,99637.97
2022-11-15T12:16:51.728Z,99653.28
2022-11-15T12:19:19.144Z,99644.66
2022-11-15T12:21:48.882Z,99652.31
2022-11-15T12:24:18.543Z,99642.38
2022-11-15T12:26:49.839Z,99619.06
2022-11-15T12:29:18.956Z,99642.28
2022-11-15T12:31:47.688Z,99634.53
2022-11-15T12:34:30.945Z,99609.75
2022-11-15T12:36:58.407Z,99623.69
2022-11-15T12:40:02.461Z,99619.47
2022-11-15T12:42:38.265Z,99611.59
2022-11-15T12:45:24.533Z,99614.25
2022-11-15T12:47:51.985Z,99620.28
2022-11-15T12:50:38.544Z,99613.28
2022-11-15T12:53:30.531Z,99617.53
2022-11-15T12:56:22.398Z,99605.75
2022-11-15T12:58:50.867Z,99605.53
2022-11-15T13:02:07.329Z,99600.56
2022-11-15T13:04:35.125Z,99589.28
2022-11-15T13:07:04.906Z,99595.47
2022-11-15T13:09:56.914Z,99592.16
2022-11-15T13:12:53.123Z,99587.81
2022-11-15T13:15:38.216Z,99539.66
2022-11-15T13:18:31.982Z,99597.78
2022-11-15T13:21:02.760Z,99593.53
2022-11-15T13:23:31.785Z,99579.53
2022-11-15T13:26:14.267Z,99542.00
2022-11-15T13:28:45.498Z,99556.47
2022-11-15T13:31:37.867Z,99565.31
2022-11-15T13:34:36.598Z,99562.88
2022-11-15T13:37:03.813Z,99565.69
2022-11-15T13:39:33.436Z,99531.91
2022-11-15T13:42:01.012Z,99562.50
2022-11-15T13:44:29.894Z,99565.25
2022-11-15T13:49:17.340Z,99515.56
2022-11-15T13:51:46.903Z,99496.66
2022-11-15T13:54:20.979Z,99560.47
2022-11-15T13:56:51.718Z,99561.44
2022-11-15T13:59:23.113Z,99556.34
2022-11-15T14:01:50.846Z,99554.66
2022-11-15T14:04:20.985Z,99548.59
2022-11-15T14:06:49.195Z,99554.00
2022-11-15T14:09:27.464Z,99544.25
2022-11-15T14:11:57.282Z,99543.50
2022-11-15T14:14:25.163Z,99537.22
2022-11-15T14:16:53.525Z,99540.09
2022-11-15T14:19:38.645Z,99542.75
2022-11-15T14:22:14.413Z,99501.97
2022-11-15T14:24:42.223Z,99506.53
2022-11-15T14:27:26.971Z,99532.53
2022-11-15T14:29:54.485Z,99537.03
2022-11-15T14:32:22.704Z,99484.44
2022-11-15T14:34:50.354Z,99476.50
2022-11-15T14:37:22.956Z,99481.91
2022-11-15T14:39:50.692Z,99525.09
2022-11-15T14:42:18.293Z,99524.19
2022-11-15T14:44:47.121Z,99525.00
2022-11-15T14:47:14.593Z,99464.50
2022-11-15T14:49:42.036Z,99522.44
2022-11-15T14:52:31.553Z,99512.81
2022-11-15T14:55:00.127Z,99505.06
2022-11-15T14:57:27.588Z,99496.56
2022-11-15T14:59:56.453Z,99504.31
2022-11-15T15:02:25.509Z,99493.81
2022-11-15T15:04:53.054Z,99498.28
2022-11-15T15:07:20.728Z,99494.00
2022-11-15T15:09:48.419Z,99497.53
2022-11-15T15:12:17.774Z,99496.66
2022-11-15T15:14:45.536Z,99413.47
2022-11-15T15:17:14.303Z,99494.97
2022-11-15T15:19:41.775Z,99443.78
2022-11-15T15:22:12.818Z,99493.28
2022-11-15T15:24:40.247Z,99489.88
2022-11-15T15:27:07.712Z,99495.19
2022-11-15T15:29:35.175Z,99479.69
2022-11-15T15:32:02.654Z,99482.88
2022-11-15T15:34:31.407Z,99478.53
2022-11-15T15:37:20.029Z,99479.47
2022-11-15T15:39:47.437Z,99467.19
2022-11-15T15:42:14.872Z,99465.47
2022-11-15T15:44:42.414Z,99454.88
2022-11-15T15:47:11.908Z,99459.34
2022-11-15T15:49:40.702Z,99462.91
2022-11-15T15:52:08.150Z,99450.63
2022-11-15T15:54:35.656Z,99410.84
2022-11-15T15:57:03.579Z,99446.28
2022-11-15T15:59:31.033Z,99443.63
2022-11-15T16:01:58.491Z,99441.91
2022-11-15T16:04:26.766Z,99437.47
2022-11-15T16:06:55.875Z,99442.78
2022-11-15T16:09:43.435Z,99438.44
2022-11-15T16:12:10.965Z,99437.59
2022-11-15T16:14:38.425Z,99438.44
2022-11-15T16:17:06.129Z,99427.94
2022-11-15T16:19:33.564Z,99430.69
2022-11-15T16:22:02.539Z,99428.06
2022-11-15T16:24:29.991Z,99423.69
2022-11-15T16:26:57.446Z,99424.66
2022-11-15T16:29:25.025Z,99433.47
2022-11-15T16:31:52.481Z,99431.72
2022-11-15T16:34:19.935Z,99422.94
2022-11-15T16:36:47.359Z,99420.31
2022-11-15T16:39:19.250Z,99415.94
2022-11-15T16:41:47.653Z,99415.94
2022-11-15T16:44:15.119Z,99358.03
2022-11-15T16:46:42.773Z,99404.59
2022-11-15T16:49:12.477Z,99408.19
2022-11-15T16:51:41.384Z,99410.84
2022-11-15T16:54:08.889Z,99411.69
2022-11-15T16:56:37.644Z,99409.16
2022-11-15T16:59:05.199Z,99410.13
2022-11-15T17:01:35.271Z,99410.22
2022-11-15T17:04:12.337Z,99404.06
2022-11-15T17:06:40.090Z,99400.44
2022-11-15T17:09:07.647Z,99327.56
2022-11-15T17:11:35.088Z,99396.13
2022-11-15T17:14:03.857Z,99383.81
2022-11-15T17:16:31.304Z,99385.81
2022-11-15T17:18:58.792Z,99385.63
2022-11-15T17:21:33.413Z,99383.06
2022-11-15T17:24:01.263Z,99384.84
2022-11-15T17:26:30.721Z,99389.34
2022-11-15T17:29:01.228Z,99373.19
2022-11-15T17:31:33.571Z,99377.88
2022-11-15T17:34:01.575Z,99371.72
2022-11-15T17:36:29.054Z,99371.72
2022-11-15T17:38:59.765Z,99369.06
2022-11-15T17:41:27.624Z,99363.03
2022-11-15T17:43:57.778Z,99361.22
2022-11-15T17:46:25.055Z,99361.31
2022-11-15T17:48:53.872Z,99362.28
2022-11-15T17:51:22.955Z,99364.06
2022-11-15T17:53:50.606Z,99354.34
2022-11-15T17:56:18.764Z,99324.22
2022-11-15T17:58:48.897Z,99314.88
2022-11-15T18:01:18.433Z,99300.22
2022-11-15T18:03:46.069Z,99354.53
2022-11-15T18:06:14.984Z,99352.84
2022-11-15T18:08:43.815Z,99359.84
2022-11-15T18:11:12.219Z,99354.53
2022-11-15T18:13:40.209Z,99347.56
2022-11-15T18:16:09.860Z,99292.56
2022-11-15T18:18:37.371Z,99301.06
2022-11-15T18:21:05.356Z,99352.84
2022-11-15T18:23:34.717Z,99338.72
2022-11-15T18:26:02.652Z,99347.66
2022-11-15T18:28:32.194Z,99348.59
2022-11-15T18:31:00.070Z,99344.16
2022-11-15T18:33:27.629Z,99341.59
2022-11-15T18:36:02.237Z,99337.16
2022-11-15T18:38:30.873Z,99340.75
2022-11-15T18:41:06.617Z,99282.84
2022-11-15T18:43:34.383Z,99332.91
2022-11-15T18:46:03.407Z,99339.06
2022-11-15T18:48:31.305Z,99337.38
2022-11-15T18:51:05.120Z,99337.28
2022-11-15T18:53:33.183Z,99272.47
2022-11-15T18:56:03.109Z,99264.06
2022-11-15T18:58:31.602Z,99317.97
2022-11-15T19:01:02.980Z,99242.59
2022-11-15T19:03:33.111Z,99311.81
2022-11-15T19:06:04.836Z,99315.44
2022-11-15T19:08:35.392Z,99222.13
2022-11-15T19:11:05.335Z,99315.44
2022-11-15T19:13:33.128Z,99309.38
2022-11-15T19:16:01.044Z,99303.97
2022-11-15T19:18:28.541Z,99299.53
2022-11-15T19:20:56.062Z,99297.84
2022-11-15T19:23:23.555Z,99297.84
2022-11-15T19:25:57.145Z,99270.56
2022-11-15T19:28:25.963Z,99289.03
2022-11-15T19:30:53.465Z,99240.91
2022-11-15T19:33:26.538Z,99295.19
2022-11-15T19:36:00.968Z,99295.19
2022-11-15T19:38:28.557Z,99301.44
2022-11-15T19:40:59.225Z,99295.19
2022-11-15T19:43:28.369Z,99299.63
2022-11-15T19:46:00.965Z,99304.94
2022-11-15T19:48:30.430Z,99261.25
2022-11-15T19:51:00.836Z,99299.63
2022-11-15T19:53:34.430Z,99213.03
2022-11-15T19:56:03.563Z,99206.97
2022-11-15T19:58:33.797Z,99293.47
2022-11-15T20:01:02.834Z,99295.41
2022-11-15T20:03:30.834Z,99195.31
2022-11-15T20:06:02.895Z,99209.97
2022-11-15T20:08:30.616Z,99277.69
2022-11-15T20:10:58.334Z,99271.56
2022-11-15T20:13:25.890Z,99268.91
2022-11-15T20:15:54.813Z,99263.63
2022-11-15T20:18:22.439Z,99254.81
2022-11-15T20:20:49.998Z,99254.91
2022-11-15T20:23:17.593Z,99260.22
2022-11-15T20:25:45.194Z,99190.47
2022-11-15T20:28:14.280Z,99253.94
2022-11-15T20:30:43.201Z,99258.44
2022-11-15T20:33:12.046Z,99246.13
2022-11-15T20:35:39.519Z,99253.25
2022-11-15T20:38:07.694Z,99256.72
2022-11-15T20:40:35.174Z,99248.75
2022-11-15T20:43:02.753Z,99254.06
2022-11-15T20:45:30.249Z,99251.53
2022-11-15T20:47:57.753Z,99258.53
2022-11-15T20:50:42.226Z,99258.53
2022-11-15T20:53:10.459Z,99249.72
2022-11-15T20:55:40.792Z,99185.59
2022-11-15T20:58:08.260Z,99253.34
2022-11-15T21:00:36.749Z,99247.94
2022-11-15T21:03:06.623Z,99251.53
2022-11-15T21:05:35.916Z,99145.16
2022-11-15T21:08:03.395Z,99244.53
2022-11-15T21:10:48.601Z,99248.16
2022-11-15T21:13:16.049Z,99238.47
2022-11-15T21:15:43.514Z,99233.94
2022-11-15T21:18:10.981Z,99235.72
2022-11-15T21:20:39.797Z,99235.72
2022-11-15T21:23:07.249Z,99231.50
2022-11-15T21:25:35.002Z,99235.84
2022-11-15T21:28:02.893Z,99234.16
2022-11-15T21:30:30.440Z,99235.00
2022-11-15T21:32:57.875Z,99221.19
2022-11-15T21:35:25.346Z,99224.31
2022-11-15T21:37:57.021Z,99225.25
2022-11-15T21:40:24.760Z,99222.69
2022-11-15T21:42:52.199Z,99210.31
2022-11-15T21:45:19.623Z,99219.13
2022-11-15T21:47:47.077Z,99212.09
2022-11-15T21:50:14.558Z,99203.22
2022-11-15T21:52:42.022Z,99198.00
2022-11-15T21:55:11.054Z,99198.84
2022-11-15T21:57:38.513Z,99190.06
2022-11-15T22:00:24.244Z,99183.91
2022-11-15T22:02:51.696Z,99183.03
2022-11-15T22:05:19.152Z,99184.75
2022-11-15T22:07:46.827Z,99177.66
2022-11-15T22:10:15.636Z,99180.38
2022-11-15T22:12:43.109Z,99169.78
2022-11-15T22:15:10.855Z,99168.00
2022-11-15T22:17:56.329Z,99168.13
2022-11-15T22:23:11.308Z,99168.13
2022-11-15T22:25:40.309Z,99176.91
2022-11-15T22:28:07.848Z,99178.59
2022-11-15T22:30:35.355Z,99175.19
2022-11-15T22:33:02.886Z,99165.47
2022-11-15T22:35:30.381Z,99170.75
2022-11-15T22:37:57.887Z,99157.53
2022-11-15T22:40:25.427Z,99155.84
2022-11-15T22:42:54.251Z,99150.53
2022-11-15T22:45:21.752Z,99149.69
2022-11-15T22:47:49.325Z,99142.59
2022-11-15T22:50:17.304Z,99141.75
2022-11-15T22:52:44.869Z,99139.09
2022-11-15T22:55:12.363Z,99129.69
2022-11-15T22:57:39.828Z,99130.28
2022-11-15T23:00:11.937Z,99129.47
2022-11-15T23:02:39.428Z,99127.63
2022-11-15T23:05:07.634Z,99047.44
2022-11-15T23:07:35.292Z,99128.59
2022-11-15T23:10:16.732Z,99123.31
2022-11-15T23:13:01.673Z,99119.81
2022-11-15T23:15:50.684Z,99111.84
2022-11-15T23:18:18.178Z,99113.69
2022-11-15T23:20:45.694Z,99119.91
2022-11-15T23:23:12.266Z,99113.69
2022-11-15T23:25:39.742Z,99113.69
2022-11-15T23:28:07.287Z,99111.03
2022-11-15T23:30:54.036Z,99109.19
2022-11-15T23:33:39.311Z,99114.72
2022-11-15T23:36:07.286Z,99103.19
2022-11-15T23:38:36.967Z,99096.19
2022-11-15T23:41:04.817Z,99101.47
2022-11-15T23:43:32.384Z,99002.25
2022-11-15T23:46:02.212Z,99010.50
2022-11-15T23:48:29.788Z,99082.94
2022-11-15T23:50:57.397Z,99086.44
2022-11-15T23:53:24.925Z,99090.06
2022-11-15T23:55:56.379Z,99082.13
2022-11-15T23:58:23.863Z,99087.41
